MV Lockmaster — WDF4136 — position and weather

sailwx.info

Track history (hours):
 
Tides and Currents Weather Stations Pressure Air Temp Water Temp Dewpoint Dewpoint Depression Visibility Wind Speed Wind Dir Waves Ship Positions

MV Lockmaster

Owner: River Construction, Metaire, LA. More information available from US FCC via Universal Licensing System and Coast Guard Vessel Documentation Center.

Last reported at 2015-Jun-30 20:16 UTC. Time now 2015-Jul-01 01:50 UTC.
Position N 30°00' W 089°59'.

Type: Towing. MMSI: 367448420.

Date/timePositionNaut miles runAvg speedWind from/ knotsBaromVisibWave heightAir tempDewpointWater temp
2015-Jun-30 20:16N 30°00' W 089°59'0 0.0
2015-Jun-30 19:24N 30°00' W 089°59'0 0.0
2015-Jun-30 18:32N 29°60' W 089°59'1 0.4
2015-Jun-30 16:30N 29°60' W 090°00'1 0.9
2015-Jun-30 15:31N 30°00' W 089°59'0 0.0
2015-Jun-30 14:31N 30°00' W 089°59'0 0.0
2015-Jun-30 13:32N 30°00' W 089°59'0 0.0
2015-Jun-30 12:33N 30°00' W 089°59'0 0.0
2015-Jun-30 11:26N 29°60' W 089°59'0 0.0
2015-Jun-30 10:23N 29°60' W 089°59'0 0.0
2015-Jun-30 09:33N 30°00' W 089°59'6 0.7
2015-Jun-30 00:32N 29°55' W 089°56'0 0.0
2015-Jun-29 23:15N 29°55' W 089°56'0 0.0
2015-Jun-29 21:28N 29°55' W 089°56'6 4.6
2015-Jun-29 20:12N 29°58' W 090°02'2 1.6
2015-Jun-29 19:15N 29°59' W 090°01'2 1.7
2015-Jun-29 18:19N 30°00' W 089°59'0 0.0
2015-Jun-29 17:32N 30°00' W 089°59'0 0.0
2015-Jun-29 16:26N 30°00' W 089°59'0 0.0
2015-Jun-29 15:32N 29°60' W 089°59'0 0.0
2015-Jun-29 14:21N 30°00' W 089°59'0 0.0
2015-Jun-29 13:33N 30°00' W 089°59'0 0.0
2015-Jun-29 12:29N 30°00' W 089°59'0 0.0
2015-Jun-29 11:33N 29°60' W 089°59'0 0.1
2015-Jun-29 10:33N 29°60' W 089°59'3 2.9
2015-Jun-29 09:33N 29°58' W 090°02'0 0.3
2015-Jun-29 08:33N 29°57' W 090°02'1 0.6
2015-Jun-29 07:32N 29°58' W 090°02'0 0.3
2015-Jun-29 06:32N 29°58' W 090°01'3 2.6
2015-Jun-29 05:33N 30°00' W 089°59'0 0.1
2015-Jun-29 04:26N 30°00' W 089°59'0 0.0
2015-Jun-29 03:32N 30°00' W 089°59'0 0.0
2015-Jun-29 02:29N 29°60' W 089°59'0 0.0
2015-Jun-29 01:27N 29°60' W 089°59'0 0.0
2015-Jun-28 08:26N 29°60' W 089°59'0 0.0
2015-Jun-28 07:26N 30°00' W 089°59'0 0.0
2015-Jun-28 06:13N 30°00' W 089°59'0 0.0
2015-Jun-28 05:32N 30°00' W 089°59'0 0.0
2015-Jun-28 04:25N 30°00' W 089°59'3 3.2
2015-Jun-28 03:28N 29°58' W 090°02'4 3.9
2015-Jun-28 02:27N 29°56' W 089°58'4 4.4
2015-Jun-28 01:32N 29°58' W 090°02'1 0.7
2015-Jun-28 00:31N 29°59' W 090°01'2 2.0
2015-Jun-27 23:25N 29°60' W 089°59'0 0.0
2015-Jun-27 21:32N 30°00' W 089°59'0 0.0
2015-Jun-27 20:17N 29°60' W 089°59'0 0.0
2015-Jun-27 19:32N 30°00' W 089°59'0 0.0
2015-Jun-27 18:33N 30°00' W 089°59'0 0.0
2015-Jun-27 17:33N 30°00' W 089°59'0 0.0
2015-Jun-27 16:33N 30°00' W 089°59'0 0.0
2015-Jun-27 15:32N 30°00' W 089°59'0 0.0
2015-Jun-27 14:21N 29°60' W 089°59'0 0.4
2015-Jun-27 13:24N 29°60' W 089°60'3 3.3
2015-Jun-27 12:31N 29°57' W 090°01'3 3.2
2015-Jun-27 11:33N 29°55' W 089°58'4 3.9
2015-Jun-27 10:31N 29°58' W 090°02'2 2.3
2015-Jun-27 09:33N 29°60' W 090°00'1 0.5
2015-Jun-27 08:30N 30°00' W 089°59'0 0.0
2015-Jun-27 07:25N 30°00' W 089°59'0 0.0
2015-Jun-27 06:26N 30°00' W 089°59'0 0.0
2015-Jun-27 05:28N 30°00' W 089°59'0 0.0
2015-Jun-27 02:18N 30°00' W 089°59'0 0.0
2015-Jun-26 10:14N 29°60' W 089°59'0 0.0
2015-Jun-26 06:14N 29°60' W 089°59'0 0.0
2015-Jun-26 04:21N 30°00' W 089°59'3 1.6
2015-Jun-26 02:31N 29°58' W 090°02'1 0.5
2015-Jun-26 01:29N 29°57' W 090°02'0 0.4
2015-Jun-26 00:30N 29°58' W 090°02'1 1.1
2015-Jun-25 23:31N 29°58' W 090°02'2 2.3
2015-Jun-25 22:27N 29°60' W 089°59'0 0.1
2015-Jun-25 21:23N 30°00' W 089°59'0 0.0
2015-Jun-25 20:33N 30°00' W 089°59'0 0.0
2015-Jun-25 19:29N 29°60' W 089°59'0 0.0
2015-Jun-25 18:31N 30°00' W 089°59'0 0.0
2015-Jun-25 17:33N 30°00' W 089°59'0 0.0
2015-Jun-25 16:30N 30°00' W 089°59'0 0.0
2015-Jun-25 15:32N 30°00' W 089°59'0 0.0
2015-Jun-25 14:33N 30°00' W 089°59'3 2.7
2015-Jun-25 13:24N 30°00' W 089°56'2 1.7
2015-Jun-25 12:24N 30°00' W 089°58'1 1.6
2015-Jun-25 11:32N 29°60' W 089°59'2 1.8
2015-Jun-25 10:28N 29°59' W 090°01'1 1.1
2015-Jun-25 09:19N 29°58' W 090°02'3 0.1
2015-Jun-24 09:17N 29°60' W 089°59'1 0.2
2015-Jun-24 06:29N 29°60' W 090°00'3 2.9
2015-Jun-24 05:29N 29°57' W 090°01'2 1.1
2015-Jun-24 03:27N 29°56' W 089°59'3 3.3
2015-Jun-24 02:26N 29°58' W 090°02'0 0.3
2015-Jun-24 01:30N 29°58' W 090°02'0 0.0
2015-Jun-24 00:32N 29°58' W 090°02'0 0.0
2015-Jun-23 23:32N 29°58' W 090°02'2 2.5
2015-Jun-23 22:33N 30°00' W 089°59'0 0.0
2015-Jun-23 21:32N 30°00' W 089°59'0 0.0
2015-Jun-23 20:31N 29°60' W 089°59'0 0.0
2015-Jun-23 19:33N 30°00' W 089°59'0 0.0
2015-Jun-23 19:04N 30°00' W 089°59'2 0.1
2015-Jun-22 08:24N 29°58' W 090°01'0 0.4
2015-Jun-22 07:26N 29°59' W 090°01'3 3.4
2015-Jun-22 06:25N 29°56' W 089°59'3 3.0
2015-Jun-22 05:29N 29°57' W 090°02'3 2.0
2015-Jun-22 04:14N 29°55' W 090°04'0 0.0
2015-Jun-22 03:28N 29°55' W 090°04'0 0.3
2015-Jun-22 02:16N 29°56' W 090°04'3 3.9
2015-Jun-22 01:33N 29°58' W 090°02'0 0.2
2015-Jun-22 00:28N 29°58' W 090°02'3 2.8
2015-Jun-21 23:33N 30°00' W 089°59'0 0.0
2015-Jun-21 22:20N 30°00' W 089°59'0 0.0
2015-Jun-21 21:33N 30°00' W 089°59'0 0.0
2015-Jun-21 20:28N 30°00' W 089°59'0 0.0
2015-Jun-21 19:32N 29°60' W 089°59'0 0.0
2015-Jun-21 18:33N 30°00' W 089°59'0 0.0
2015-Jun-21 17:28N 30°00' W 089°59'0 0.0
2015-Jun-21 16:32N 29°60' W 089°59'0 0.0
2015-Jun-21 00:04N 30°00' W 089°59'0 0.0
2015-Jun-20 23:30N 29°60' W 089°59'3 1.3
2015-Jun-20 21:16N 29°58' W 090°02'1 0.7
2015-Jun-20 20:28N 29°58' W 090°02'  
Track history (hours):
 
Tides and Currents Weather Stations Pressure Air Temp Water Temp Dewpoint Dewpoint Depression Visibility Wind Speed Wind Dir Waves Ship Positions

MV Lockmaster

Owner: River Construction, Metaire, LA. More information available from US FCC via Universal Licensing System and Coast Guard Vessel Documentation Center.

Last reported at 2015-Jun-30 20:16 UTC. Time now 2015-Jul-01 01:50 UTC.
Position N 30°00' W 089°59'.

Type: Towing. MMSI: 367448420.

Date/timePositionNaut miles runAvg speedWind from/ knotsBaromVisibWave heightAir tempDewpointWater temp
2015-Jun-30 20:16N 30°00' W 089°59'0 0.0
2015-Jun-30 19:24N 30°00' W 089°59'0 0.0
2015-Jun-30 18:32N 29°60' W 089°59'1 0.4
2015-Jun-30 16:30N 29°60' W 090°00'1 0.9
2015-Jun-30 15:31N 30°00' W 089°59'0 0.0
2015-Jun-30 14:31N 30°00' W 089°59'0 0.0
2015-Jun-30 13:32N 30°00' W 089°59'0 0.0
2015-Jun-30 12:33N 30°00' W 089°59'0 0.0
2015-Jun-30 11:26N 29°60' W 089°59'0 0.0
2015-Jun-30 10:23N 29°60' W 089°59'0 0.0
2015-Jun-30 09:33N 30°00' W 089°59'6 0.7
2015-Jun-30 00:32N 29°55' W 089°56'0 0.0
2015-Jun-29 23:15N 29°55' W 089°56'0 0.0
2015-Jun-29 21:28N 29°55' W 089°56'6 4.6
2015-Jun-29 20:12N 29°58' W 090°02'2 1.6
2015-Jun-29 19:15N 29°59' W 090°01'2 1.7
2015-Jun-29 18:19N 30°00' W 089°59'0 0.0
2015-Jun-29 17:32N 30°00' W 089°59'0 0.0
2015-Jun-29 16:26N 30°00' W 089°59'0 0.0
2015-Jun-29 15:32N 29°60' W 089°59'0 0.0
2015-Jun-29 14:21N 30°00' W 089°59'0 0.0
2015-Jun-29 13:33N 30°00' W 089°59'0 0.0
2015-Jun-29 12:29N 30°00' W 089°59'0 0.0
2015-Jun-29 11:33N 29°60' W 089°59'0 0.1
2015-Jun-29 10:33N 29°60' W 089°59'3 2.9
2015-Jun-29 09:33N 29°58' W 090°02'0 0.3
2015-Jun-29 08:33N 29°57' W 090°02'1 0.6
2015-Jun-29 07:32N 29°58' W 090°02'0 0.3
2015-Jun-29 06:32N 29°58' W 090°01'3 2.6
2015-Jun-29 05:33N 30°00' W 089°59'0 0.1
2015-Jun-29 04:26N 30°00' W 089°59'0 0.0
2015-Jun-29 03:32N 30°00' W 089°59'0 0.0
2015-Jun-29 02:29N 29°60' W 089°59'0 0.0
2015-Jun-29 01:27N 29°60' W 089°59'0 0.0
2015-Jun-28 08:26N 29°60' W 089°59'0 0.0
2015-Jun-28 07:26N 30°00' W 089°59'0 0.0
2015-Jun-28 06:13N 30°00' W 089°59'0 0.0
2015-Jun-28 05:32N 30°00' W 089°59'0 0.0
2015-Jun-28 04:25N 30°00' W 089°59'3 3.2
2015-Jun-28 03:28N 29°58' W 090°02'4 3.9
2015-Jun-28 02:27N 29°56' W 089°58'4 4.4
2015-Jun-28 01:32N 29°58' W 090°02'1 0.7
2015-Jun-28 00:31N 29°59' W 090°01'2 2.0
2015-Jun-27 23:25N 29°60' W 089°59'0 0.0
2015-Jun-27 21:32N 30°00' W 089°59'0 0.0
2015-Jun-27 20:17N 29°60' W 089°59'0 0.0
2015-Jun-27 19:32N 30°00' W 089°59'0 0.0
2015-Jun-27 18:33N 30°00' W 089°59'0 0.0
2015-Jun-27 17:33N 30°00' W 089°59'0 0.0
2015-Jun-27 16:33N 30°00' W 089°59'0 0.0
2015-Jun-27 15:32N 30°00' W 089°59'0 0.0
2015-Jun-27 14:21N 29°60' W 089°59'0 0.4
2015-Jun-27 13:24N 29°60' W 089°60'3 3.3
2015-Jun-27 12:31N 29°57' W 090°01'3 3.2
2015-Jun-27 11:33N 29°55' W 089°58'4 3.9
2015-Jun-27 10:31N 29°58' W 090°02'2 2.3
2015-Jun-27 09:33N 29°60' W 090°00'1 0.5
2015-Jun-27 08:30N 30°00' W 089°59'0 0.0
2015-Jun-27 07:25N 30°00' W 089°59'0 0.0
2015-Jun-27 06:26N 30°00' W 089°59'0 0.0
2015-Jun-27 05:28N 30°00' W 089°59'0 0.0
2015-Jun-27 02:18N 30°00' W 089°59'0 0.0
2015-Jun-26 10:14N 29°60' W 089°59'0 0.0
2015-Jun-26 06:14N 29°60' W 089°59'0 0.0
2015-Jun-26 04:21N 30°00' W 089°59'3 1.6
2015-Jun-26 02:31N 29°58' W 090°02'1 0.5
2015-Jun-26 01:29N 29°57' W 090°02'0 0.4
2015-Jun-26 00:30N 29°58' W 090°02'1 1.1
2015-Jun-25 23:31N 29°58' W 090°02'2 2.3
2015-Jun-25 22:27N 29°60' W 089°59'0 0.1
2015-Jun-25 21:23N 30°00' W 089°59'0 0.0
2015-Jun-25 20:33N 30°00' W 089°59'0 0.0
2015-Jun-25 19:29N 29°60' W 089°59'0 0.0
2015-Jun-25 18:31N 30°00' W 089°59'0 0.0
2015-Jun-25 17:33N 30°00' W 089°59'0 0.0
2015-Jun-25 16:30N 30°00' W 089°59'0 0.0
2015-Jun-25 15:32N 30°00' W 089°59'0 0.0
2015-Jun-25 14:33N 30°00' W 089°59'3 2.7
2015-Jun-25 13:24N 30°00' W 089°56'2 1.7
2015-Jun-25 12:24N 30°00' W 089°58'1 1.6
2015-Jun-25 11:32N 29°60' W 089°59'2 1.8
2015-Jun-25 10:28N 29°59' W 090°01'1 1.1
2015-Jun-25 09:19N 29°58' W 090°02'3 0.1
2015-Jun-24 09:17N 29°60' W 089°59'1 0.2
2015-Jun-24 06:29N 29°60' W 090°00'3 2.9
2015-Jun-24 05:29N 29°57' W 090°01'2 1.1
2015-Jun-24 03:27N 29°56' W 089°59'3 3.3
2015-Jun-24 02:26N 29°58' W 090°02'0 0.3
2015-Jun-24 01:30N 29°58' W 090°02'0 0.0
2015-Jun-24 00:32N 29°58' W 090°02'0 0.0
2015-Jun-23 23:32N 29°58' W 090°02'2 2.5
2015-Jun-23 22:33N 30°00' W 089°59'0 0.0
2015-Jun-23 21:32N 30°00' W 089°59'0 0.0
2015-Jun-23 20:31N 29°60' W 089°59'0 0.0
2015-Jun-23 19:33N 30°00' W 089°59'0 0.0
2015-Jun-23 19:04N 30°00' W 089°59'2 0.1
2015-Jun-22 08:24N 29°58' W 090°01'0 0.4
2015-Jun-22 07:26N 29°59' W 090°01'3 3.4
2015-Jun-22 06:25N 29°56' W 089°59'3 3.0
2015-Jun-22 05:29N 29°57' W 090°02'3 2.0
2015-Jun-22 04:14N 29°55' W 090°04'0 0.0
2015-Jun-22 03:28N 29°55' W 090°04'0 0.3
2015-Jun-22 02:16N 29°56' W 090°04'3 3.9
2015-Jun-22 01:33N 29°58' W 090°02'0 0.2
2015-Jun-22 00:28N 29°58' W 090°02'3 2.8
2015-Jun-21 23:33N 30°00' W 089°59'0 0.0
2015-Jun-21 22:20N 30°00' W 089°59'0 0.0
2015-Jun-21 21:33N 30°00' W 089°59'0 0.0
2015-Jun-21 20:28N 30°00' W 089°59'0 0.0
2015-Jun-21 19:32N 29°60' W 089°59'0 0.0
2015-Jun-21 18:33N 30°00' W 089°59'0 0.0
2015-Jun-21 17:28N 30°00' W 089°59'0 0.0
2015-Jun-21 16:32N 29°60' W 089°59'0 0.0
2015-Jun-21 00:04N 30°00' W 089°59'0 0.0
2015-Jun-20 23:30N 29°60' W 089°59'3 1.3
2015-Jun-20 21:16N 29°58' W 090°02'1 0.7
2015-Jun-20 20:28N 29°58' W 090°02'  

Dump ship's entire track history